createdAt,value
2023-03-21T00:02:36.282Z,4.97
2023-03-21T00:06:38.026Z,4.30
2023-03-21T00:10:41.208Z,4.17
2023-03-21T00:14:42.826Z,4.60
2023-03-21T00:18:45.942Z,4.30
2023-03-21T00:22:47.234Z,4.43
2023-03-21T00:26:50.089Z,4.80
2023-03-21T00:30:51.251Z,5.13
2023-03-21T00:35:11.856Z,5.13
2023-03-21T00:38:55.629Z,6.10
2023-03-21T00:42:56.799Z,5.00
2023-03-21T00:47:07.167Z,6.13
2023-03-21T00:51:04.774Z,6.00
2023-03-21T00:55:06.999Z,6.17
2023-03-21T00:59:08.314Z,5.23
2023-03-21T01:03:23.777Z,5.53
2023-03-21T01:07:15.039Z,6.43
2023-03-21T01:11:18.704Z,6.00
2023-03-21T01:15:20.038Z,6.63
2023-03-21T01:19:32.920Z,6.30
2023-03-21T01:23:28.970Z,6.80
2023-03-21T01:27:30.090Z,5.93
2023-03-21T01:31:31.493Z,6.00
2023-03-21T01:35:40.924Z,5.80
2023-03-21T01:39:36.074Z,7.07
2023-03-21T01:43:37.336Z,5.90
2023-03-21T01:47:38.520Z,7.13
2023-03-21T01:51:49.493Z,6.53
2023-03-21T01:55:50.711Z,6.53
2023-03-21T01:59:54.116Z,5.67
2023-03-21T02:03:55.248Z,6.03
2023-03-21T02:07:56.507Z,6.43
2023-03-21T02:11:57.866Z,5.60
2023-03-21T02:16:14.820Z,6.43
2023-03-21T02:20:42.469Z,6.17
2023-03-21T02:24:59.528Z,5.50
2023-03-21T02:28:57.156Z,6.77
2023-03-21T02:33:29.363Z,6.07
2023-03-21T02:37:38.751Z,6.23
2023-03-21T02:41:52.544Z,6.43
2023-03-21T02:46:00.689Z,7.23
2023-03-21T02:50:05.519Z,6.27
2023-03-21T02:54:29.895Z,5.80
2023-03-21T02:58:17.096Z,7.20
2023-03-21T03:02:22.391Z,7.33
2023-03-21T03:06:39.241Z,7.27
2023-03-21T03:10:44.092Z,6.93
2023-03-21T03:15:11.005Z,7.27
2023-03-21T03:19:16.077Z,7.63
2023-03-21T03:23:24.064Z,9.97
2023-03-21T03:27:31.922Z,8.60
2023-03-21T03:31:37.540Z,7.43
2023-03-21T03:35:38.646Z,7.13
2023-03-21T03:39:43.660Z,7.97
2023-03-21T03:43:48.622Z,7.37
2023-03-21T03:48:17.597Z,6.73
2023-03-21T03:52:25.860Z,7.07
2023-03-21T03:56:28.122Z,6.80
2023-03-21T04:00:32.813Z,6.63
2023-03-21T04:04:34.553Z,6.60
2023-03-21T04:08:37.116Z,7.57
2023-03-21T04:12:38.277Z,6.77
2023-03-21T04:16:39.472Z,6.40
2023-03-21T04:20:40.827Z,9.30
2023-03-21T04:24:42.290Z,9.10
2023-03-21T04:28:43.508Z,8.87
2023-03-21T04:32:44.922Z,8.73
2023-03-21T04:36:46.304Z,9.43
2023-03-21T04:40:47.506Z,8.53
2023-03-21T04:44:48.966Z,7.77
2023-03-21T04:48:50.048Z,7.40
2023-03-21T04:52:51.113Z,8.40
2023-03-21T04:56:52.884Z,9.20
2023-03-21T05:00:54.106Z,10.53
2023-03-21T05:04:57.010Z,13.20
2023-03-21T05:09:03.735Z,11.37
2023-03-21T05:13:05.053Z,19.43
2023-03-21T05:17:06.163Z,12.03
2023-03-21T05:21:09.313Z,9.73
2023-03-21T05:25:11.653Z,7.67
2023-03-21T05:29:12.855Z,7.93
2023-03-21T05:33:13.992Z,9.67
2023-03-21T05:37:15.119Z,9.57
2023-03-21T05:41:19.114Z,13.30
2023-03-21T05:45:20.248Z,21.80
2023-03-21T05:49:22.252Z,21.83
2023-03-21T05:53:23.445Z,13.77
2023-03-21T05:57:27.537Z,9.67
2023-03-21T06:01:28.553Z,12.20
2023-03-21T06:05:29.938Z,10.37
2023-03-21T06:09:31.260Z,23.77
2023-03-21T06:13:32.573Z,48.00
2023-03-21T06:17:33.854Z,35.40
2023-03-21T06:21:35.070Z,26.00
2023-03-21T06:25:36.661Z,15.57
2023-03-21T06:29:38.199Z,9.73
2023-03-21T06:33:39.450Z,9.93
2023-03-21T06:37:40.576Z,10.23
2023-03-21T06:41:41.582Z,9.73
2023-03-21T06:45:43.290Z,12.17
2023-03-21T06:49:44.800Z,10.77
2023-03-21T06:53:46.133Z,9.67
2023-03-21T06:57:47.293Z,8.50
2023-03-21T07:01:48.307Z,9.07
2023-03-21T07:05:49.467Z,9.30
2023-03-21T07:09:51.689Z,7.97
2023-03-21T07:13:53.046Z,8.73
2023-03-21T07:17:54.314Z,10.30
2023-03-21T07:21:55.698Z,7.83
2023-03-21T07:25:56.819Z,9.40
2023-03-21T07:29:58.073Z,8.47
2023-03-21T07:33:59.281Z,8.10
2023-03-21T07:38:00.519Z,7.97
2023-03-21T07:42:02.076Z,7.10
2023-03-21T07:46:03.759Z,6.20
2023-03-21T07:50:05.824Z,6.97
2023-03-21T07:54:06.820Z,5.80
2023-03-21T07:58:07.904Z,6.10
2023-03-21T08:02:16.595Z,6.83
2023-03-21T08:06:17.773Z,5.93
2023-03-21T08:10:19.076Z,5.90
2023-03-21T08:14:20.219Z,5.90
2023-03-21T08:18:21.200Z,5.33
2023-03-21T08:22:22.200Z,7.60
2023-03-21T08:26:25.123Z,7.97
2023-03-21T08:30:27.996Z,6.57
2023-03-21T08:34:28.970Z,8.00
2023-03-21T08:38:31.977Z,7.53
2023-03-21T08:42:33.514Z,8.93
2023-03-21T08:46:34.795Z,6.83
2023-03-21T08:50:35.900Z,6.83
2023-03-21T08:54:37.604Z,6.53
2023-03-21T08:58:38.616Z,8.37
2023-03-21T09:02:41.052Z,7.83
2023-03-21T09:06:43.941Z,8.13
2023-03-21T09:10:44.902Z,8.13
2023-03-21T09:14:45.954Z,7.20
2023-03-21T09:18:49.167Z,8.33
2023-03-21T09:22:54.045Z,7.07
2023-03-21T09:26:55.439Z,7.20
2023-03-21T09:30:59.808Z,7.43
2023-03-21T09:35:00.804Z,7.00
2023-03-21T09:39:03.527Z,7.33
2023-03-21T09:43:14.964Z,7.80
2023-03-21T09:47:21.067Z,6.53
2023-03-21T09:51:24.295Z,7.10
2023-03-21T09:55:33.642Z,6.50
2023-03-21T09:59:37.458Z,6.80
2023-03-21T10:03:38.512Z,6.57
2023-03-21T10:07:44.037Z,6.47
2023-03-21T10:11:49.509Z,6.30
2023-03-21T10:15:51.182Z,7.20
2023-03-21T10:20:20.705Z,6.43
2023-03-21T10:24:25.522Z,8.00
2023-03-21T10:28:34.505Z,6.40
2023-03-21T10:32:35.147Z,6.17
2023-03-21T10:36:37.595Z,7.80
2023-03-21T10:40:38.746Z,6.30
2023-03-21T10:44:39.951Z,6.03
2023-03-21T10:48:44.462Z,6.93
2023-03-21T10:52:49.388Z,7.23
2023-03-21T10:56:56.921Z,8.57
2023-03-21T11:01:02.108Z,8.43
2023-03-21T11:05:09.723Z,6.80
2023-03-21T11:09:16.620Z,8.97
2023-03-21T11:13:21.574Z,7.73
2023-03-21T11:17:31.537Z,8.70
2023-03-21T11:21:37.118Z,8.93
2023-03-21T11:25:41.786Z,8.47
2023-03-21T11:29:48.650Z,11.67
2023-03-21T11:33:59.226Z,8.67
2023-03-21T11:38:00.182Z,8.27
2023-03-21T11:42:01.357Z,9.93
2023-03-21T11:46:11.438Z,9.00
2023-03-21T11:50:18.556Z,9.23
2023-03-21T11:54:55.270Z,8.07
2023-03-21T11:59:24.172Z,9.37
2023-03-21T12:03:41.483Z,8.43
2023-03-21T12:08:01.230Z,8.20
2023-03-21T12:12:15.119Z,8.87
2023-03-21T12:16:29.416Z,9.63
2023-03-21T12:20:43.552Z,10.63
2023-03-21T12:24:56.033Z,11.20
2023-03-21T12:29:03.598Z,10.90
2023-03-21T12:33:37.295Z,11.07
2023-03-21T12:38:16.619Z,9.40
2023-03-21T12:42:37.920Z,10.27
2023-03-21T12:47:16.206Z,10.20
2023-03-21T12:51:24.456Z,9.13
2023-03-21T12:55:31.937Z,10.07
2023-03-21T12:59:39.624Z,8.40
2023-03-21T13:03:44.675Z,9.23
2023-03-21T13:07:49.510Z,9.03
2023-03-21T13:11:54.534Z,9.40
2023-03-21T13:16:11.594Z,8.13
2023-03-21T13:20:19.704Z,8.07
2023-03-21T13:24:39.887Z,9.63
2023-03-21T13:28:41.859Z,8.20
2023-03-21T13:32:45.952Z,10.07
2023-03-21T13:36:48.692Z,9.23
2023-03-21T13:40:52.986Z,10.40
2023-03-21T13:44:57.437Z,12.27
2023-03-21T13:49:01.210Z,12.03
2023-03-21T13:53:15.315Z,11.90
2023-03-21T13:57:30.034Z,11.27
2023-03-21T14:02:00.479Z,13.33
2023-03-21T14:06:01.916Z,14.20
2023-03-21T14:10:18.658Z,15.60
2023-03-21T14:14:23.260Z,15.93
2023-03-21T14:18:47.611Z,15.70
2023-03-21T14:22:30.039Z,16.30
2023-03-21T14:26:35.221Z,17.27
2023-03-21T14:30:38.873Z,18.73
2023-03-21T14:34:42.049Z,19.20
2023-03-21T14:38:43.659Z,20.03
2023-03-21T14:42:48.370Z,21.27
2023-03-21T14:46:49.894Z,22.47
2023-03-21T14:50:53.924Z,21.70
2023-03-21T14:54:56.016Z,23.47
2023-03-21T14:58:57.823Z,21.67
2023-03-21T15:03:00.158Z,21.87
2023-03-21T15:07:04.276Z,22.63
2023-03-21T15:11:08.826Z,22.27
2023-03-21T15:15:13.877Z,25.07
2023-03-21T15:19:18.935Z,25.63
2023-03-21T15:23:35.497Z,27.33
2023-03-21T15:27:41.630Z,23.17
2023-03-21T15:31:44.040Z,24.17
2023-03-21T15:35:55.004Z,24.13
2023-03-21T15:39:59.857Z,24.07
2023-03-21T15:44:10.720Z,22.80
2023-03-21T15:48:14.262Z,21.70
2023-03-21T15:52:16.644Z,22.13
2023-03-21T15:56:19.803Z,20.93
2023-03-21T16:00:42.338Z,20.10
2023-03-21T16:05:02.642Z,21.60
2023-03-21T16:09:20.823Z,21.77
2023-03-21T16:13:21.901Z,20.77
2023-03-21T16:17:29.615Z,18.00
2023-03-21T16:21:31.449Z,21.73
2023-03-21T16:25:32.748Z,18.40
2023-03-21T16:29:34.049Z,19.73
2023-03-21T16:33:35.186Z,20.43
2023-03-21T16:37:36.486Z,21.33
2023-03-21T16:41:37.636Z,22.63
2023-03-21T16:45:38.870Z,21.70
2023-03-21T16:49:39.880Z,20.10
2023-03-21T16:53:41.205Z,20.70
2023-03-21T16:57:42.856Z,21.77
2023-03-21T17:01:45.381Z,21.30
2023-03-21T17:05:46.804Z,23.97
2023-03-21T17:09:47.878Z,25.90
2023-03-21T17:13:50.530Z,26.17
2023-03-21T17:17:53.558Z,25.87
2023-03-21T17:21:54.654Z,24.03
2023-03-21T17:25:55.831Z,22.70
2023-03-21T17:29:57.619Z,23.07
2023-03-21T17:33:59.078Z,20.57
2023-03-21T17:38:00.316Z,21.80
2023-03-21T17:42:01.349Z,21.27
2023-03-21T17:46:02.593Z,22.97
2023-03-21T17:50:04.597Z,25.73
2023-03-21T17:54:06.232Z,29.67
2023-03-21T17:58:07.599Z,27.93
2023-03-21T18:02:08.741Z,26.13
2023-03-21T18:06:19.039Z,25.83
2023-03-21T18:10:23.599Z,28.63
2023-03-21T18:14:28.761Z,27.80
2023-03-21T18:18:27.971Z,26.93
2023-03-21T18:22:29.179Z,25.63
2023-03-21T18:26:31.265Z,25.07
2023-03-21T18:30:53.056Z,25.57
2023-03-21T18:34:38.074Z,31.87
2023-03-21T18:38:39.741Z,23.37
2023-03-21T18:43:08.716Z,23.57
2023-03-21T18:46:46.304Z,23.13
2023-03-21T18:50:47.374Z,23.50
2023-03-21T18:54:49.031Z,20.30
2023-03-21T18:58:50.418Z,21.87
2023-03-21T19:02:58.230Z,22.63
2023-03-21T19:06:56.892Z,19.07
2023-03-21T19:11:00.136Z,19.07
2023-03-21T19:15:01.029Z,16.20
2023-03-21T19:19:03.085Z,17.90
2023-03-21T19:23:05.616Z,18.50
2023-03-21T19:27:07.144Z,14.60
2023-03-21T19:31:08.788Z,15.07
2023-03-21T19:35:10.405Z,14.13
2023-03-21T19:39:12.969Z,14.63
2023-03-21T19:43:32.376Z,14.97
2023-03-21T19:47:20.673Z,11.43
2023-03-21T19:51:29.099Z,13.23
2023-03-21T19:55:26.701Z,12.03
2023-03-21T19:59:27.889Z,13.20
2023-03-21T20:03:28.903Z,14.03
2023-03-21T20:07:31.991Z,13.57
2023-03-21T20:11:33.585Z,14.47
2023-03-21T20:15:44.919Z,15.27
2023-03-21T20:19:37.788Z,18.93
2023-03-21T20:23:38.761Z,24.40
2023-03-21T20:27:41.650Z,16.10
2023-03-21T20:31:42.953Z,38.27
2023-03-21T20:36:32.162Z,23.43
2023-03-21T20:39:48.539Z,19.53
2023-03-21T20:47:52.708Z,17.30
2023-03-21T20:55:59.695Z,13.90
2023-03-21T21:00:01.213Z,13.07
2023-03-21T21:04:02.648Z,14.17
2023-03-21T21:08:04.033Z,14.27
2023-03-21T21:12:07.772Z,14.63
2023-03-21T21:16:09.740Z,13.07
2023-03-21T21:20:17.141Z,13.77
2023-03-21T21:24:18.701Z,13.57
2023-03-21T21:28:22.689Z,13.17
2023-03-21T21:32:24.195Z,11.53
2023-03-21T21:36:25.482Z,13.73
2023-03-21T21:40:26.703Z,12.93
2023-03-21T21:44:27.880Z,14.60
2023-03-21T21:48:28.907Z,34.53
2023-03-21T21:52:30.243Z,37.13
2023-03-21T21:56:36.374Z,28.00
2023-03-21T22:00:37.614Z,18.87
2023-03-21T22:08:44.472Z,19.33
2023-03-21T22:12:45.720Z,20.13
2023-03-21T22:16:46.921Z,18.73
2023-03-21T22:20:48.114Z,21.97
2023-03-21T22:24:49.869Z,20.97
2023-03-21T22:28:50.906Z,18.27
2023-03-21T22:33:08.100Z,14.63
2023-03-21T22:36:56.371Z,13.17
2023-03-21T22:40:59.634Z,10.00
2023-03-21T22:45:01.037Z,11.93
2023-03-21T22:49:03.494Z,16.23
2023-03-21T22:53:04.627Z,16.37
2023-03-21T22:57:06.352Z,17.83
2023-03-21T23:01:07.638Z,20.57
2023-03-21T23:05:10.110Z,21.17
2023-03-21T23:09:12.476Z,19.83
2023-03-21T23:13:13.621Z,18.77
2023-03-21T23:17:15.875Z,19.63
2023-03-21T23:21:18.172Z,19.07
2023-03-21T23:25:19.958Z,13.43
2023-03-21T23:29:21.024Z,11.73
2023-03-21T23:33:22.266Z,9.77
2023-03-21T23:37:24.481Z,8.40
2023-03-21T23:41:25.977Z,9.33
2023-03-21T23:45:26.924Z,9.67
2023-03-21T23:49:28.549Z,7.97
2023-03-21T23:53:29.959Z,9.60
2023-03-21T23:57:31.403Z,9.70
